Time;durP1;ratioP1;P1;durP2;ratioP2;P2;SDS_P1;SDS_P2;PMS_P1;PMS_P2;Temp;Humidity;BMP_temperature;BMP_pressure;BME280_temperature;BME280_humidity;BME280_pressure;Samples;Min_cycle;Max_cycle;Signal;HPM_P1;HPM_P2
2023/08/11 00:00:22;;;;;;;4.18;2.50;;;;;;;12.20;87.64;102055.59;4966606;28;20027;-83
2023/08/11 00:02:52;;;;;;;5.00;2.55;;;;;;;12.21;87.03;102061.78;4968380;28;20043;-81
2023/08/11 00:05:18;;;;;;;6.10;2.85;;;;;;;12.20;87.52;102058.28;4969691;28;20038;-80
2023/08/11 00:07:50;;;;;;;3.88;1.83;;;;;;;12.20;87.20;102054.78;4983544;28;20075;-79
2023/08/11 00:10:23;;;;;;;;;;;;;;;12.21;87.59;102051.84;4967647;28;20038;-79
2023/08/11 00:12:49;;;;;;;5.45;1.83;;;;;;;12.17;87.15;102061.44;4964989;28;19973;-78
2023/08/11 00:15:15;;;;;;;5.65;2.55;;;;;;;12.19;87.54;102058.50;4956712;28;20050;-83
2023/08/11 00:17:40;;;;;;;;;;;;;;;12.19;88.56;102059.34;4973711;28;20034;-80
2023/08/11 00:20:08;;;;;;;7.05;2.25;;;;;;;12.19;87.71;102059.34;4975879;28;20447;-82
2023/08/11 00:22:34;;;;;;;5.05;2.30;;;;;;;12.18;88.27;102057.69;4963795;28;20046;-80
2023/08/11 00:25:00;;;;;;;5.93;2.50;;;;;;;12.23;88.15;102065.00;4975770;28;20043;-80
2023/08/11 00:27:27;;;;;;;;;;;;;;;12.27;89.07;102061.59;4983004;28;20539;-82
2023/08/11 00:29:54;;;;;;;5.75;1.98;;;;;;;12.25;88.23;102058.31;4965878;28;19922;-83
2023/08/11 00:32:20;;;;;;;2.85;1.85;;;;;;;12.28;87.46;102047.09;4982536;28;20041;-80
2023/08/11 00:34:47;;;;;;;5.20;2.28;;;;;;;12.34;88.66;102065.97;4958565;28;20050;-80
2023/08/11 00:37:13;;;;;;;3.58;2.00;;;;;;;12.35;88.56;102062.22;4946424;28;20023;-81
2023/08/11 00:39:41;;;;;;;5.32;2.22;;;;;;;12.38;87.81;102062.53;4940215;29;20408;-80
2023/08/11 00:42:06;;;;;;;5.53;2.17;;;;;;;12.44;88.98;102055.34;4973754;28;20134;-80
2023/08/11 00:44:32;;;;;;;4.25;1.85;;;;;;;12.43;88.77;102064.47;4966306;28;20087;-82
2023/08/11 00:46:58;;;;;;;4.18;2.05;;;;;;;12.41;88.85;102056.66;4973569;28;20026;-80
2023/08/11 00:49:24;;;;;;;5.32;2.15;;;;;;;12.40;89.16;102054.25;4967118;28;20051;-81
2023/08/11 00:51:50;;;;;;;5.35;2.20;;;;;;;12.42;88.45;102063.66;4972206;28;20058;-81
2023/08/11 00:54:17;;;;;;;4.75;1.92;;;;;;;12.39;89.09;102057.97;4972568;28;20045;-81
2023/08/11 00:56:44;;;;;;;6.13;2.42;;;;;;;12.40;88.98;102054.25;4969807;28;20070;-81
2023/08/11 00:59:15;;;;;;;3.80;1.83;;;;;;;12.39;88.73;102052.59;4968177;28;20172;-81
2023/08/11 01:01:41;;;;;;;4.57;2.15;;;;;;;12.40;88.59;102048.88;4964048;28;20034;-80
2023/08/11 01:04:07;;;;;;;5.70;2.00;;;;;;;12.39;88.88;102047.22;4961086;28;20054;-84
2023/08/11 01:06:41;;;;;;;6.60;1.90;;;;;;;12.37;89.80;102050.16;4943224;28;20042;-83
2023/08/11 01:09:41;;;;;;;6.30;2.22;;;;;;;12.42;89.94;102050.22;4955563;28;20085;-80
2023/08/11 01:12:26;;;;;;;6.13;2.10;;;;;;;12.44;89.73;102052.66;4969058;28;20047;-79
2023/08/11 01:15:10;;;;;;;4.45;1.90;;;;;;;12.49;89.74;102050.03;4971846;28;20030;-80
2023/08/11 01:17:39;;;;;;;6.32;2.08;;;;;;;12.51;89.44;102039.84;4960913;28;20405;-82
2023/08/11 01:20:10;;;;;;;3.60;1.67;;;;;;;12.54;89.91;102053.59;4956180;28;20093;-80
2023/08/11 01:22:44;;;;;;;3.92;1.95;;;;;;;12.59;89.50;102039.41;4969624;28;20065;-80
2023/08/11 01:25:12;;;;;;;3.53;2.00;;;;;;;12.62;90.25;102036.22;4954725;28;20035;-79
2023/08/11 01:27:52;;;;;;;3.88;2.00;;;;;;;12.67;90.29;102038.16;4972333;28;20030;-81
2023/08/11 01:30:18;;;;;;;2.90;2.10;;;;;;;12.67;89.81;102030.91;4968000;28;20047;-80
2023/08/11 01:32:45;;;;;;;;;;;;;;;12.73;90.36;102037.13;4969121;28;20046;-79
2023/08/11 01:35:10;;;;;;;5.70;2.45;;;;;;;12.73;90.53;102037.94;4985255;28;19918;-81
2023/08/11 01:37:36;;;;;;;4.38;2.10;;;;;;;12.76;89.90;102033.94;4954221;28;20122;-81
2023/08/11 01:40:10;;;;;;;3.08;1.70;;;;;;;12.78;89.38;102016.50;4960976;28;20485;-80
2023/08/11 01:42:44;;;;;;;5.13;2.10;;;;;;;12.84;90.04;102020.88;4953396;29;20046;-79
2023/08/11 01:45:13;;;;;;;7.22;2.75;;;;;;;12.84;90.08;102018.19;4936100;28;20500;-78
2023/08/11 01:47:42;;;;;;;7.97;2.30;;;;;;;12.89;90.28;102024.69;4935541;28;20107;-79
2023/08/11 01:50:10;;;;;;;3.10;1.83;;;;;;;12.91;90.47;102017.16;4977860;28;20031;-82
2023/08/11 01:52:39;;;;;;;4.15;2.05;;;;;;;12.92;90.23;102018.78;4977482;28;20082;-80
2023/08/11 01:55:10;;;;;;;6.45;1.92;;;;;;;12.94;89.63;102019.34;4990819;28;20034;-79
2023/08/11 01:57:40;;;;;;;5.20;2.20;;;;;;;12.99;90.04;102038.22;4969564;28;20031;-80
2023/08/11 02:00:09;;;;;;;3.80;1.75;;;;;;;13.00;90.10;102027.19;4975826;28;20034;-80
2023/08/11 02:02:40;;;;;;;2.95;1.75;;;;;;;12.99;89.91;102020.19;4983069;28;20030;-79
2023/08/11 02:05:07;;;;;;;4.32;2.10;;;;;;;13.02;90.32;102029.66;4967209;28;20051;-80
2023/08/11 02:07:41;;;;;;;3.20;1.90;;;;;;;13.02;90.48;102030.47;4976645;28;20094;-79
2023/08/11 02:10:08;;;;;;;3.65;1.70;;;;;;;13.03;90.23;102029.38;4983646;28;20054;-80
2023/08/11 02:12:40;;;;;;;4.20;1.98;;;;;;;13.03;89.75;102024.00;4942596;28;20051;-81
2023/08/11 02:15:07;;;;;;;4.47;2.08;;;;;;;13.06;89.76;102031.56;4975924;28;20046;-82
2023/08/11 02:17:33;;;;;;;4.68;2.25;;;;;;;13.06;89.86;102020.81;4989821;28;20058;-80
2023/08/11 02:20:03;;;;;;;4.13;2.20;;;;;;;13.08;89.72;102029.44;4974789;28;20035;-78
2023/08/11 02:22:30;;;;;;;3.80;1.85;;;;;;;13.10;90.06;102015.75;4974579;28;20039;-80
2023/08/11 02:24:56;;;;;;;4.25;1.73;;;;;;;13.10;89.77;102026.50;4985623;28;20626;-81
2023/08/11 02:27:22;;;;;;;6.45;1.90;;;;;;;13.11;89.80;102033.50;4959444;28;20079;-78
2023/08/11 02:29:49;;;;;;;4.38;1.92;;;;;;;13.13;89.56;102025.97;4973904;28;20022;-80
2023/08/11 02:32:15;;;;;;;3.50;2.10;;;;;;;13.16;90.69;102020.09;5006217;28;20034;-80
2023/08/11 02:34:41;;;;;;;4.15;2.03;;;;;;;13.20;89.81;102025.75;4973427;28;20046;-78
2023/08/11 02:37:08;;;;;;;2.80;1.70;;;;;;;13.21;89.84;102012.13;4968999;28;20043;-80
2023/08/11 02:39:36;;;;;;;3.75;2.05;;;;;;;13.24;90.16;102027.72;4995083;28;20031;-77
2023/08/11 02:42:03;;;;;;;6.63;2.17;;;;;;;13.27;89.52;102021.00;4997696;28;20041;-80
2023/08/11 02:44:29;;;;;;;;;;;;;;;13.29;90.04;102017.03;4957156;28;20043;-81
2023/08/11 02:46:54;;;;;;;4.00;1.63;;;;;;;13.29;89.91;102022.41;4973950;28;19908;-78
2023/08/11 02:49:20;;;;;;;;;;;;;;;13.28;89.19;102018.09;4964666;28;20039;-81
2023/08/11 02:51:46;;;;;;;2.30;1.50;;;;;;;13.27;89.90;102021.81;5008110;28;19916;-80
2023/08/11 02:54:11;;;;;;;;;;;;;;;13.27;89.40;102027.19;4960995;28;20035;-80
2023/08/11 02:56:45;;;;;;;3.80;1.63;;;;;;;13.27;88.71;102021.81;4983614;28;19929;-80
2023/08/11 02:59:12;;;;;;;6.78;2.00;;;;;;;13.27;89.87;102008.38;4995614;28;20034;-78
2023/08/11 03:01:38;;;;;;;4.40;1.50;;;;;;;13.25;89.17;102007.81;4988097;28;20015;-79
2023/08/11 03:04:04;;;;;;;;;;;;;;;13.30;89.07;102020.50;4991807;28;20051;-79
2023/08/11 03:06:30;;;;;;;3.35;1.90;;;;;;;13.29;90.34;102006.25;4957893;28;19982;-80
2023/08/11 03:08:56;;;;;;;;;;;;;;;13.32;89.82;102008.41;4965146;28;20024;-80
2023/08/11 03:11:22;;;;;;;4.25;2.08;;;;;;;13.30;89.73;102005.19;4964420;28;19953;-81
2023/08/11 03:13:47;;;;;;;5.28;1.67;;;;;;;13.29;89.59;101998.19;4990563;28;20057;-80
2023/08/11 03:16:13;;;;;;;3.13;1.83;;;;;;;13.34;89.63;101998.22;4994682;28;20110;-80
2023/08/11 03:18:39;;;;;;;5.57;1.75;;;;;;;13.34;89.55;102000.94;4969785;29;20039;-80
2023/08/11 03:21:05;;;;;;;4.47;1.75;;;;;;;13.35;89.05;101999.03;4989585;28;20112;-80
2023/08/11 03:23:31;;;;;;;;;;;;;;;13.36;88.82;101996.09;4953767;28;20047;-79
2023/08/11 03:25:57;;;;;;;4.53;1.52;;;;;;;13.37;89.30;101996.91;4985688;28;19953;-79
2023/08/11 03:28:23;;;;;;;4.35;1.80;;;;;;;13.37;88.64;101995.00;4983569;28;20034;-80
2023/08/11 03:30:49;;;;;;;;;;;;;;;13.41;89.07;101992.59;4987227;28;20039;-78
2023/08/11 03:33:15;;;;;;;6.05;2.10;;;;;;;13.39;89.13;102000.94;4951781;28;19914;-79
2023/08/11 03:35:48;;;;;;;;;;;;;;;13.43;89.37;101995.06;4960082;28;20531;-78
2023/08/11 03:38:14;;;;;;;4.15;2.35;;;;;;;13.40;89.75;102001.75;4967799;28;19973;-79
2023/08/11 03:40:40;;;;;;;4.28;2.10;;;;;;;13.43;89.69;101987.78;4973118;28;20043;-78
2023/08/11 03:43:07;;;;;;;5.90;2.45;;;;;;;13.47;89.07;101988.06;4976138;28;20050;-77
2023/08/11 03:45:35;;;;;;;3.53;2.30;;;;;;;13.53;88.38;101989.72;4970142;28;20050;-77
2023/08/11 03:48:05;;;;;;;4.65;2.17;;;;;;;13.55;87.93;101990.31;4953366;28;20035;-74
2023/08/11 03:50:30;;;;;;;5.88;2.60;;;;;;;13.58;88.31;101982.50;4958262;28;20117;-73
2023/08/11 03:52:56;;;;;;;;;;;;;;;13.62;87.89;101985.50;4946449;28;20049;-79
2023/08/11 03:55:23;;;;;;;5.05;2.55;;;;;;;13.61;87.06;101992.75;4984758;28;19914;-75
2023/08/11 03:57:49;;;;;;;2.70;1.83;;;;;;;13.66;86.85;101998.16;4942611;28;20031;-78
2023/08/11 04:00:19;;;;;;;3.80;2.38;;;;;;;13.69;87.29;102006.81;4973770;28;20030;-79
2023/08/11 04:02:53;;;;;;;4.22;2.10;;;;;;;13.69;87.00;102004.94;4943488;28;20063;-79
2023/08/11 04:05:19;;;;;;;6.20;2.15;;;;;;;13.70;87.51;102003.84;4968800;28;20035;-78
2023/08/11 04:07:45;;;;;;;;;;;;;;;13.71;88.11;102000.09;4982844;28;20431;-78
2023/08/11 04:10:15;;;;;;;6.03;2.42;;;;;;;13.71;88.33;102005.47;4958571;28;20068;-77
2023/08/11 04:12:41;;;;;;;4.60;2.10;;;;;;;13.72;88.32;102001.72;4976789;28;20035;-77
2023/08/11 04:15:07;;;;;;;;;;;;;;;13.76;89.42;102002.81;4961862;28;20041;-78
2023/08/11 04:17:33;;;;;;;4.32;2.30;;;;;;;13.75;88.36;102003.06;4940223;28;20312;-77
2023/08/11 04:20:00;;;;;;;4.13;2.15;;;;;;;13.77;88.67;101993.66;4967274;28;20102;-76
2023/08/11 04:22:27;;;;;;;6.20;3.00;;;;;;;13.78;89.13;101999.88;4976610;28;20034;-76
2023/08/11 04:24:52;;;;;;;;;;;;;;;13.79;88.92;102001.47;4962979;28;20061;-79
2023/08/11 04:27:18;;;;;;;4.97;1.95;;;;;;;13.80;88.62;102003.91;4956484;28;19922;-77
2023/08/11 04:29:47;;;;;;;5.95;2.10;;;;;;;13.81;88.63;101993.94;4975102;28;20407;-76
2023/08/11 04:32:12;;;;;;;;;;;;;;;13.83;88.86;102003.41;4961010;28;20092;-76
2023/08/11 04:34:38;;;;;;;3.28;1.77;;;;;;;13.81;88.85;101994.75;4956405;28;19922;-79
2023/08/11 04:37:04;;;;;;;;;;;;;;;13.82;88.01;101999.09;4977017;28;20121;-78
2023/08/11 04:39:32;;;;;;;3.53;2.15;;;;;;;13.83;88.23;101997.22;4954032;28;20299;-77
2023/08/11 04:41:59;;;;;;;4.85;2.10;;;;;;;13.85;87.79;102006.63;4953786;28;20165;-77
2023/08/11 04:44:25;;;;;;;;;;;;;;;13.87;87.97;102004.47;4956684;28;20508;-76
2023/08/11 04:46:52;;;;;;;5.35;2.03;;;;;;;13.87;87.99;102004.47;4958385;28;19914;-77
2023/08/11 04:49:18;;;;;;;3.88;1.98;;;;;;;13.89;88.01;102002.38;4977763;28;20031;-77
2023/08/11 04:51:44;;;;;;;;;;;;;;;13.92;88.75;102006.41;4940232;28;20464;-76
2023/08/11 04:54:11;;;;;;;5.07;2.30;;;;;;;13.89;87.80;102005.06;4959352;28;19918;-78
2023/08/11 04:56:38;;;;;;;3.85;2.00;;;;;;;13.91;87.70;102005.59;4940522;28;20039;-77
2023/08/11 04:59:04;;;;;;;;;;;;;;;13.93;88.01;102011.53;4964258;28;20045;-79
2023/08/11 05:01:30;;;;;;;3.63;2.08;;;;;;;13.94;87.40;102007.75;4977291;28;19925;-80
2023/08/11 05:03:55;;;;;;;;;;;;;;;13.96;87.98;102001.31;4981221;28;20126;-80
2023/08/11 05:06:21;;;;;;;4.85;1.70;;;;;;;13.98;87.46;102001.88;4963913;28;19914;-81
2023/08/11 05:08:47;;;;;;;;;;;;;;;14.00;88.26;102013.97;4984481;28;20035;-80
2023/08/11 05:11:14;;;;;;;4.78;2.10;;;;;;;13.99;87.66;102006.16;4957217;28;19921;-80
2023/08/11 05:13:40;;;;;;;7.78;2.13;;;;;;;14.03;87.65;102004.59;4960519;28;20038;-79
2023/08/11 05:16:06;;;;;;;;;;;;;;;14.07;88.53;102005.66;4966926;28;20034;-81
2023/08/11 05:18:32;;;;;;;4.68;1.83;;;;;;;14.08;88.14;102002.72;4951090;28;19921;-78
2023/08/11 05:20:57;;;;;;;;;;;;;;;14.12;88.42;102005.69;4964433;28;20074;-80
2023/08/11 05:23:23;;;;;;;2.70;1.75;;;;;;;14.12;88.51;102003.81;4982534;28;19918;-79
2023/08/11 05:25:49;;;;;;;4.85;2.45;;;;;;;14.15;87.92;102015.94;4991656;28;20070;-79
2023/08/11 05:28:15;;;;;;;;;;;;;;;14.19;88.38;102012.47;4975599;28;20106;-80
2023/08/11 05:30:41;;;;;;;5.45;1.70;;;;;;;14.21;87.97;102012.19;4958032;28;20098;-80
2023/08/11 05:33:06;;;;;;;;;;;;;;;14.25;87.78;101999.84;4949217;28;20064;-81
2023/08/11 05:35:32;;;;;;;4.80;2.20;;;;;;;14.27;87.45;102005.75;4970241;28;19918;-80
2023/08/11 05:37:59;;;;;;;;;;;;;;;14.30;87.20;102007.94;4978561;28;20030;-79
2023/08/11 05:40:25;;;;;;;3.28;1.98;;;;;;;14.33;87.88;102011.97;4979755;28;19918;-80
2023/08/11 05:42:50;;;;;;;;;;;;;;;14.35;87.41;101999.84;4975451;28;20106;-79
2023/08/11 05:45:16;;;;;;;2.45;1.45;;;;;;;14.35;87.48;101999.84;4974114;28;19914;-80
2023/08/11 05:47:41;;;;;;;4.78;2.00;;;;;;;14.37;87.08;102000.44;4973712;28;20050;-79
2023/08/11 05:50:08;;;;;;;3.53;1.98;;;;;;;14.40;87.83;101997.19;4963231;28;20039;-81
2023/08/11 05:52:35;;;;;;;3.10;1.80;;;;;;;14.46;88.04;102001.56;4970770;28;20047;-79
2023/08/11 05:55:01;;;;;;;3.83;1.92;;;;;;;14.50;87.45;101999.16;4955711;28;20043;-79
2023/08/11 05:57:27;;;;;;;;;;;;;;;14.54;87.09;101999.41;4961274;28;20037;-80
2023/08/11 05:59:52;;;;;;;5.13;2.72;;;;;;;14.56;87.73;101997.25;4959641;28;19914;-78
2023/08/11 06:02:18;;;;;;;;;;;;;;;14.58;87.16;101997.81;4972737;28;20027;-79
2023/08/11 06:04:44;;;;;;;3.05;1.75;;;;;;;14.60;87.30;102001.84;4953909;28;19923;-76
2023/08/11 06:07:11;;;;;;;4.25;2.08;;;;;;;14.66;87.37;101990.00;4968269;28;20050;-77
2023/08/11 06:09:36;;;;;;;;;;;;;;;14.72;88.05;101985.44;4960547;28;20043;-77
2023/08/11 06:12:02;;;;;;;3.92;2.00;;;;;;;14.72;86.91;101998.94;4957011;28;20372;-76
2023/08/11 06:14:28;;;;;;;;;;;;;;;14.79;87.96;101999.47;4975724;28;20042;-78
2023/08/11 06:16:54;;;;;;;2.78;1.58;;;;;;;14.79;87.31;101994.09;4953961;28;20021;-78
2023/08/11 06:19:19;;;;;;;;;;;;;;;14.83;86.90;101995.16;4966237;28;20051;-79
2023/08/11 06:21:46;;;;;;;4.45;1.77;;;;;;;14.85;87.36;101998.41;4949404;28;20654;-79
2023/08/11 06:24:12;;;;;;;4.93;2.30;;;;;;;14.89;86.95;102002.19;4957036;28;20403;-77
2023/08/11 06:26:38;;;;;;;4.07;2.25;;;;;;;14.92;86.71;101998.16;4972895;28;20038;-79
2023/08/11 06:29:04;;;;;;;;;;;;;;;14.94;87.02;102004.88;4965575;28;20041;-78
2023/08/11 06:31:30;;;;;;;2.72;1.98;;;;;;;14.96;86.55;101994.63;4971619;28;19931;-77
2023/08/11 06:33:56;;;;;;;4.80;1.85;;;;;;;15.01;86.76;102002.75;4971173;28;20060;-79
2023/08/11 06:36:22;;;;;;;;;;;;;;;15.06;86.75;102003.84;4970143;28;20031;-78
2023/08/11 06:38:48;;;;;;;6.30;2.10;;;;;;;15.05;86.47;102003.03;4942127;28;20469;-76
2023/08/11 06:41:13;;;;;;;;;;;;;;;15.09;86.98;102001.38;4956994;28;20031;-78
2023/08/11 06:43:39;;;;;;;5.18;2.80;;;;;;;15.11;86.46;102006.53;4964249;28;19925;-78
2023/08/11 06:46:06;;;;;;;3.42;2.00;;;;;;;15.13;86.58;101998.97;4937578;28;20121;-77
2023/08/11 06:48:32;;;;;;;5.80;2.75;;;;;;;15.16;86.37;102003.81;4965728;28;20054;-78
2023/08/11 06:50:58;;;;;;;;;;;;;;;15.19;86.55;102006.81;4971361;28;20038;-78
2023/08/11 06:53:24;;;;;;;3.83;1.92;;;;;;;15.22;87.24;102013.53;4967311;28;19914;-78
2023/08/11 06:55:50;;;;;;;;;;;;;;;15.25;86.45;102011.13;4957282;28;20058;-76
2023/08/11 06:58:16;;;;;;;7.78;2.45;;;;;;;15.28;86.63;102013.28;4979549;28;20367;-76
2023/08/11 07:00:42;;;;;;;7.25;2.92;;;;;;;15.31;86.19;102017.34;4952274;28;20038;-75
2023/08/11 07:03:08;;;;;;;3.53;2.20;;;;;;;15.32;86.35;102010.84;4969996;28;20506;-78
2023/08/11 07:05:33;;;;;;;;;;;;;;;15.36;86.00;102014.63;4969197;28;20038;-78
2023/08/11 07:07:59;;;;;;;5.60;1.98;;;;;;;15.39;85.89;102013.28;4971576;28;19930;-76
2023/08/11 07:10:25;;;;;;;8.60;2.53;;;;;;;15.42;86.10;102001.94;4968022;28;20038;-77
2023/08/11 07:12:52;;;;;;;3.50;2.00;;;;;;;15.45;86.05;102018.41;4943746;28;20047;-78
2023/08/11 07:15:18;;;;;;;4.30;2.03;;;;;;;15.51;86.29;102021.88;4960368;28;20123;-78
2023/08/11 07:17:43;;;;;;;;;;;;;;;15.54;86.26;102022.19;4957547;28;20046;-78
2023/08/11 07:20:09;;;;;;;5.57;1.98;;;;;;;15.56;86.02;102020.00;4968843;28;19922;-76
2023/08/11 07:22:35;;;;;;;;;;;;;;;15.64;86.38;102025.97;4966568;28;20483;-80
2023/08/11 07:25:01;;;;;;;3.65;2.08;;;;;;;15.69;86.89;102023.25;4963350;28;19926;-78
2023/08/11 07:27:26;;;;;;;5.50;1.90;;;;;;;15.76;86.95;102024.59;4954804;29;20067;-78
2023/08/11 07:29:52;;;;;;;;;;;;;;;15.79;86.49;102023.25;4990669;28;20039;-75
2023/08/11 07:32:17;;;;;;;5.03;1.80;;;;;;;15.82;86.78;102020.00;5000924;28;19981;-82
2023/08/11 07:34:43;;;;;;;4.60;2.33;;;;;;;15.89;86.10;102025.91;5035872;23;20050;-75
2023/08/11 07:37:09;;;;;;;;;;;;;;;15.95;86.17;102032.94;4950689;29;20043;-77
2023/08/11 07:39:34;;;;;;;3.45;1.98;;;;;;;15.99;86.17;102039.41;4941068;29;19908;-73
2023/08/11 07:42:02;;;;;;;;;;;;;;;16.04;85.84;102028.56;4941957;29;20045;-80
2023/08/11 07:44:33;;;;;;;2.92;1.75;;;;;;;16.06;85.64;102025.63;5030173;23;19906;-74
2023/08/11 07:47:01;;;;;;;4.43;2.08;;;;;;;16.14;85.55;102029.66;4936917;29;20067;-71
2023/08/11 07:49:27;;;;;;;5.82;2.95;;;;;;;16.21;85.31;102036.38;4971755;23;20046;-71
2023/08/11 07:51:53;;;;;;;4.43;2.45;;;;;;;16.29;85.37;102029.59;5005095;23;20044;-70
2023/08/11 07:54:20;;;;;;;5.05;2.30;;;;;;;16.39;85.47;102032.22;4909706;29;20037;-70
2023/08/11 07:56:45;;;;;;;4.93;2.47;;;;;;;16.46;85.26;102032.78;4906307;29;20043;-71
2023/08/11 07:59:11;;;;;;;6.22;2.20;;;;;;;16.53;84.45;102033.28;4918358;29;20037;-72
2023/08/11 08:01:38;;;;;;;5.45;2.45;;;;;;;16.59;84.44;102029.44;4918942;29;20430;-72
2023/08/11 08:04:04;;;;;;;3.47;2.20;;;;;;;16.71;84.49;102031.03;4917887;29;20033;-75
2023/08/11 08:06:31;;;;;;;3.53;2.63;;;;;;;16.79;85.17;102033.94;4894220;29;20044;-70
2023/08/11 08:08:57;;;;;;;6.07;1.98;;;;;;;16.91;85.50;102030.91;4886296;29;20105;-74
2023/08/11 08:11:23;;;;;;;3.13;2.00;;;;;;;17.01;84.65;102028.16;4896781;29;20188;-79
2023/08/11 08:13:49;;;;;;;4.53;3.05;;;;;;;17.08;84.95;102031.34;4888656;29;20144;-79
2023/08/11 08:16:15;;;;;;;5.82;2.47;;;;;;;17.17;84.00;102037.75;4882012;29;21273;-78
2023/08/11 08:18:42;;;;;;;4.85;3.03;;;;;;;17.25;83.33;102025.50;4887286;29;20046;-77
2023/08/11 08:21:08;;;;;;;11.10;2.97;;;;;;;17.32;82.69;102028.69;4898610;29;20047;-79
2023/08/11 08:23:34;;;;;;;4.95;2.63;;;;;;;17.43;82.70;102032.94;4889047;29;20046;-79
2023/08/11 08:26:00;;;;;;;5.47;2.72;;;;;;;17.54;82.56;102030.13;4844797;29;20133;-78
2023/08/11 08:28:26;;;;;;;5.05;2.45;;;;;;;17.60;82.39;102027.09;4895623;29;20040;-77
2023/08/11 08:30:52;;;;;;;6.50;2.90;;;;;;;17.70;82.58;102035.13;4874706;29;20527;-77
2023/08/11 08:33:18;;;;;;;10.93;3.03;;;;;;;17.77;81.58;102034.03;4886124;29;20032;-80
2023/08/11 08:35:43;;;;;;;4.10;3.00;;;;;;;17.86;81.19;102032.28;4882068;29;20052;-77
2023/08/11 08:38:09;;;;;;;4.40;2.90;;;;;;;17.93;81.13;102030.06;4892268;29;20044;-78
2023/08/11 08:40:35;;;;;;;5.55;2.97;;;;;;;18.01;81.04;102027.50;4890237;29;20478;-75
2023/08/11 08:43:03;;;;;;;6.03;2.97;;;;;;;18.08;79.95;102027.16;4886166;29;20452;-77
2023/08/11 08:45:30;;;;;;;3.78;2.67;;;;;;;18.15;80.01;102016.78;4874494;29;20047;-80
2023/08/11 08:47:59;;;;;;;5.57;2.75;;;;;;;18.24;78.85;102022.38;4900208;29;20132;-78
2023/08/11 08:50:25;;;;;;;4.82;2.95;;;;;;;18.31;79.19;102022.84;4894593;29;20043;-79
2023/08/11 08:52:51;;;;;;;4.63;3.60;;;;;;;18.36;78.46;102016.56;4872720;29;20041;-76
2023/08/11 08:55:18;;;;;;;4.28;3.22;;;;;;;18.39;78.13;102015.94;4873462;29;20100;-80
2023/08/11 08:57:46;;;;;;;5.85;3.10;;;;;;;18.47;78.71;102026.16;4887964;29;20458;-76
2023/08/11 09:00:14;;;;;;;4.15;2.72;;;;;;;18.56;78.33;102024.41;4879193;29;20120;-79
2023/08/11 09:02:41;;;;;;;6.30;3.40;;;;;;;18.61;78.12;102031.66;4886836;29;20203;-77
2023/08/11 09:05:08;;;;;;;4.53;3.03;;;;;;;18.66;77.57;102027.00;4884541;29;20506;-76
2023/08/11 09:07:34;;;;;;;4.05;2.60;;;;;;;18.74;78.22;102018.19;4888896;29;20037;-71
2023/08/11 09:10:01;;;;;;;3.90;2.70;;;;;;;18.81;78.10;102020.56;4891277;29;20059;-77
2023/08/11 09:12:27;;;;;;;6.03;2.78;;;;;;;18.89;78.72;102028.03;4887994;29;20040;-75
2023/08/11 09:14:53;;;;;;;3.63;3.10;;;;;;;18.99;77.82;102027.06;4889392;29;20475;-79
2023/08/11 09:17:19;;;;;;;6.85;3.00;;;;;;;19.01;77.32;102024.88;4886932;29;20040;-75
2023/08/11 09:19:53;;;;;;;5.80;3.65;;;;;;;19.08;76.19;102030.72;4856138;29;20048;-75
2023/08/11 09:22:25;;;;;;;5.35;3.20;;;;;;;19.16;76.56;102026.53;4887083;29;20541;-77
2023/08/11 09:24:52;;;;;;;6.90;3.85;;;;;;;19.20;75.93;102028.38;4881178;29;20120;-80
2023/08/11 09:27:20;;;;;;;5.45;3.38;;;;;;;19.29;76.91;102032.00;4897099;29;20032;-75
2023/08/11 09:29:46;;;;;;;5.28;3.10;;;;;;;19.36;76.10;102010.69;4898559;29;20076;-76
2023/08/11 09:32:11;;;;;;;8.40;3.40;;;;;;;19.42;76.09;102022.28;4888293;29;20072;-71
2023/08/11 09:34:38;;;;;;;5.82;2.92;;;;;;;19.50;76.32;102016.16;4900264;29;20139;-72
2023/08/11 09:37:04;;;;;;;6.35;2.92;;;;;;;19.58;76.20;102017.44;4890113;29;20036;-72
2023/08/11 09:39:31;;;;;;;5.00;3.05;;;;;;;19.68;75.74;102019.16;4893931;29;20036;-71
2023/08/11 09:41:57;;;;;;;5.25;2.60;;;;;;;19.74;75.34;102028.81;4882132;29;20036;-73
2023/08/11 09:44:23;;;;;;;4.82;2.80;;;;;;;19.80;74.48;102030.34;4895821;29;20047;-72
2023/08/11 09:46:49;;;;;;;4.57;3.80;;;;;;;19.88;75.95;102032.38;4887623;29;20075;-73
2023/08/11 09:49:16;;;;;;;5.88;3.08;;;;;;;19.96;75.06;102025.41;4881808;29;20040;-73
2023/08/11 09:51:43;;;;;;;5.88;3.33;;;;;;;20.03;74.69;102031.25;4905273;29;20040;-72
2023/08/11 09:54:10;;;;;;;6.72;3.15;;;;;;;20.10;74.95;102031.66;4883528;29;20410;-72
2023/08/11 09:56:39;;;;;;;4.78;2.95;;;;;;;20.18;75.86;102036.38;4882147;29;20438;-73
2023/08/11 09:59:11;;;;;;;5.00;2.55;;;;;;;20.29;74.54;102037.78;4900595;29;20039;-75
2023/08/11 10:01:37;;;;;;;5.68;3.08;;;;;;;20.37;73.66;102028.91;4883477;29;20100;-74
2023/08/11 10:04:07;;;;;;;4.05;3.00;;;;;;;20.44;75.29;102034.78;4899011;29;20045;-73
2023/08/11 10:06:37;;;;;;;4.82;2.78;;;;;;;20.54;75.52;102036.50;4900452;29;20064;-72
2023/08/11 10:09:06;;;;;;;5.53;3.15;;;;;;;20.63;75.56;102034.66;4883530;29;20033;-73
2023/08/11 10:11:34;;;;;;;6.05;2.95;;;;;;;20.72;75.16;102023.81;4885496;29;20068;-72
2023/08/11 10:14:03;;;;;;;4.63;2.47;;;;;;;20.82;74.44;102029.06;4886274;29;20078;-72
2023/08/11 10:16:30;;;;;;;3.45;2.40;;;;;;;20.92;73.34;102031.53;4903667;29;20083;-75
2023/08/11 10:18:57;;;;;;;3.42;2.70;;;;;;;20.99;72.84;102029.19;4882859;29;20154;-76
2023/08/11 10:21:27;;;;;;;5.03;2.78;;;;;;;21.10;73.38;102023.50;4903773;29;20036;-77
2023/08/11 10:23:53;;;;;;;4.72;2.50;;;;;;;21.18;70.97;102030.91;4870269;29;20033;-73
2023/08/11 10:26:20;;;;;;;4.43;2.30;;;;;;;21.29;70.63;102020.63;4903919;29;20387;-74
2023/08/11 10:28:48;;;;;;;3.83;2.65;;;;;;;21.35;71.89;102028.34;4888141;29;20041;-72
2023/08/11 10:31:14;;;;;;;3.08;2.30;;;;;;;21.48;70.91;102023.94;4887827;29;20068;-75
2023/08/11 10:33:47;;;;;;;3.72;1.80;;;;;;;21.53;68.23;102021.06;4889222;29;20075;-77
2023/08/11 10:36:16;;;;;;;5.05;2.28;;;;;;;21.64;71.93;102032.50;4890033;29;20036;-72
2023/08/11 10:38:42;;;;;;;4.80;2.47;;;;;;;21.71;69.68;102019.25;4883968;29;20123;-75
2023/08/11 10:41:09;;;;;;;4.68;2.40;;;;;;;21.80;68.96;102020.06;4872543;29;20131;-73
2023/08/11 10:43:41;;;;;;;3.30;2.03;;;;;;;21.87;70.67;102019.63;4885032;29;20064;-74
2023/08/11 10:46:24;;;;;;;6.82;2.08;;;;;;;21.85;68.16;102024.59;4903810;29;20514;-72
2023/08/11 10:48:57;;;;;;;4.18;2.08;;;;;;;21.90;68.12;102019.81;4886239;29;20064;-73
2023/08/11 10:51:24;;;;;;;2.40;1.50;;;;;;;21.87;66.99;102014.97;4872595;29;20499;-73
2023/08/11 10:53:50;;;;;;;2.25;1.90;;;;;;;21.85;66.48;102019.13;4889147;29;20240;-72
2023/08/11 10:56:26;;;;;;;2.70;1.90;;;;;;;21.91;70.18;102015.16;4885925;29;20253;-71
2023/08/11 10:58:53;;;;;;;1.92;1.60;;;;;;;21.86;66.14;102012.56;4888739;29;20033;-71
2023/08/11 11:01:18;;;;;;;3.13;1.42;;;;;;;21.84;70.52;102020.25;4905278;29;20037;-73
2023/08/11 11:03:45;;;;;;;2.78;2.05;;;;;;;21.83;73.86;102011.28;4856617;29;20040;-75
2023/08/11 11:06:10;;;;;;;3.92;1.80;;;;;;;21.78;73.32;102011.41;4901876;29;20060;-73
2023/08/11 11:08:36;;;;;;;3.08;1.98;;;;;;;21.77;75.26;102012.53;4887132;29;20494;-73
2023/08/11 11:11:02;;;;;;;2.88;1.67;;;;;;;21.66;76.00;102012.00;4891877;29;20040;-75
2023/08/11 11:13:27;;;;;;;2.35;1.70;;;;;;;21.70;76.37;102021.16;4887503;29;20052;-75
2023/08/11 11:15:53;;;;;;;2.03;1.65;;;;;;;21.68;70.53;102017.97;4902176;29;20147;-74
2023/08/11 11:18:19;;;;;;;2.50;1.27;;;;;;;21.71;72.83;102006.41;4891519;29;20040;-74
2023/08/11 11:20:45;;;;;;;2.13;1.45;;;;;;;21.73;71.94;102011.53;4906324;29;20089;-73
2023/08/11 11:23:11;;;;;;;2.15;1.70;;;;;;;21.81;74.56;102010.75;4897246;29;20028;-75
2023/08/11 11:25:36;;;;;;;1.80;1.38;;;;;;;21.84;72.50;102012.06;4874679;29;20063;-73
2023/08/11 11:28:03;;;;;;;4.22;1.60;;;;;;;21.88;74.81;102022.06;4888912;29;20052;-74
2023/08/11 11:30:29;;;;;;;1.90;1.30;;;;;;;21.90;71.32;102008.91;4872131;29;20036;-76
2023/08/11 11:32:54;;;;;;;2.00;1.60;;;;;;;21.99;73.82;102000.72;4889419;29;20092;-72
2023/08/11 11:35:23;;;;;;;1.95;1.20;;;;;;;22.06;71.46;102001.06;4895229;29;20091;-72